createdAt,value
2024-04-23T00:04:46.602Z,2.40
2024-04-23T00:09:51.660Z,2.41
2024-04-23T00:14:59.232Z,2.42
2024-04-23T00:20:04.266Z,2.42
2024-04-23T00:25:10.058Z,2.43
2024-04-23T00:30:17.619Z,2.47
2024-04-23T00:35:22.604Z,2.49
2024-04-23T00:40:27.626Z,2.46
2024-04-23T00:45:37.167Z,2.42
2024-04-23T00:50:42.633Z,2.43
2024-04-23T00:55:48.966Z,2.43
2024-04-23T01:00:57.116Z,2.43
2024-04-23T01:06:02.162Z,2.36
2024-04-23T01:11:07.497Z,2.30
2024-04-23T01:16:16.527Z,2.25
2024-04-23T01:21:27.302Z,2.16
2024-04-23T01:26:35.114Z,2.10
2024-04-23T01:31:40.334Z,2.06
2024-04-23T01:36:46.006Z,2.01
2024-04-23T01:41:54.087Z,1.91
2024-04-23T01:47:00.126Z,1.81
2024-04-23T01:52:05.497Z,1.72
2024-04-23T01:57:13.841Z,1.68
2024-04-23T02:02:20.516Z,1.65
2024-04-23T02:07:25.683Z,1.60
2024-04-23T02:12:33.383Z,1.54
2024-04-23T02:17:39.746Z,1.50
2024-04-23T02:22:44.820Z,1.48
2024-04-23T02:27:52.568Z,1.48
2024-04-23T02:32:57.585Z,1.44
2024-04-23T02:38:02.624Z,1.38
2024-04-23T02:43:10.267Z,1.32
2024-04-23T02:48:15.305Z,1.30
2024-04-23T02:53:20.319Z,1.25
2024-04-23T02:58:27.865Z,1.23
2024-04-23T03:03:32.900Z,1.23
2024-04-23T03:08:37.990Z,1.21
2024-04-23T03:13:45.563Z,1.17
2024-04-23T03:18:50.541Z,1.13
2024-04-23T03:23:55.473Z,1.11
2024-04-23T03:29:03.123Z,1.05
2024-04-23T03:34:08.122Z,1.00
2024-04-23T03:39:13.062Z,0.98
2024-04-23T03:44:20.622Z,0.94
2024-04-23T03:49:25.683Z,0.93
2024-04-23T03:54:30.643Z,0.92
2024-04-23T03:59:38.188Z,0.93
2024-04-23T04:04:59.338Z,0.95
2024-04-23T04:10:04.325Z,0.95
2024-04-23T04:15:12.075Z,0.95
2024-04-23T04:20:17.314Z,0.96
2024-04-23T04:25:22.265Z,0.98
2024-04-23T04:30:29.822Z,1.02
2024-04-23T04:35:34.764Z,1.11
2024-04-23T04:40:39.776Z,1.21
2024-04-23T04:45:48.135Z,1.32
2024-04-23T04:50:53.071Z,1.45
2024-04-23T04:55:58.648Z,1.61
2024-04-23T05:01:10.382Z,1.80
2024-04-23T05:06:15.397Z,2.01
2024-04-23T05:11:20.424Z,2.21
2024-04-23T05:16:28.081Z,2.41
2024-04-23T05:21:33.115Z,2.55
2024-04-23T05:26:38.094Z,2.68
2024-04-23T05:32:01.141Z,2.74
2024-04-23T05:37:06.140Z,2.79
2024-04-23T05:42:11.134Z,2.83
2024-04-23T05:47:18.914Z,2.87
2024-04-23T05:53:01.901Z,2.90
2024-04-23T05:58:25.680Z,2.96
2024-04-23T06:03:33.229Z,3.06
2024-04-23T06:08:38.249Z,3.18
2024-04-23T06:13:50.225Z,3.34
2024-04-23T06:18:57.875Z,3.47
2024-04-23T06:24:02.857Z,3.65
2024-04-23T06:29:07.835Z,3.91
2024-04-23T06:34:15.402Z,4.19
2024-04-23T06:39:20.346Z,4.52
2024-04-23T06:44:25.763Z,4.94
2024-04-23T06:49:33.309Z,5.12
2024-04-23T06:54:38.280Z,5.18
2024-04-23T06:59:45.933Z,5.24
2024-04-23T07:04:53.498Z,5.34
2024-04-23T07:09:59.161Z,5.54
2024-04-23T07:15:04.505Z,5.71
2024-04-23T07:20:13.084Z,5.93
2024-04-23T07:25:21.105Z,6.14
2024-04-23T07:30:27.707Z,6.41
2024-04-23T07:35:35.416Z,6.67
2024-04-23T07:40:40.599Z,7.08
2024-04-23T07:45:45.615Z,7.36
2024-04-23T07:50:53.595Z,7.79
2024-04-23T07:55:58.605Z,7.97
2024-04-23T08:01:03.633Z,7.78
2024-04-23T08:06:11.307Z,7.46
2024-04-23T08:11:16.438Z,7.60
2024-04-23T08:16:21.845Z,7.71
2024-04-23T08:21:31.609Z,7.93
2024-04-23T08:26:36.799Z,8.05
2024-04-23T08:31:41.809Z,8.20
2024-04-23T08:36:49.453Z,8.60
2024-04-23T08:41:55.740Z,8.88
2024-04-23T08:47:00.859Z,9.17
2024-04-23T08:52:11.729Z,9.58
2024-04-23T08:57:18.139Z,9.62
2024-04-23T09:02:30.111Z,9.57
2024-04-23T09:07:39.454Z,9.82
2024-04-23T09:12:47.592Z,10.23
2024-04-23T09:17:58.728Z,10.01
2024-04-23T09:23:06.394Z,9.77
2024-04-23T09:28:11.435Z,9.92
2024-04-23T09:33:16.673Z,10.20
2024-04-23T09:38:24.355Z,10.24
2024-04-23T09:43:29.538Z,10.41
2024-04-23T09:48:35.202Z,10.79
2024-04-23T09:53:43.616Z,10.91
2024-04-23T09:58:49.934Z,10.62
2024-04-23T10:03:59.127Z,10.40
2024-04-23T10:09:13.527Z,10.38
2024-04-23T10:14:24.424Z,10.59
2024-04-23T10:19:35.532Z,10.88
2024-04-23T10:24:45.481Z,11.45
2024-04-23T10:29:51.327Z,11.64
2024-04-23T10:34:57.879Z,11.77
2024-04-23T10:40:07.152Z,11.58
2024-04-23T10:45:12.850Z,11.35
2024-04-23T10:50:27.224Z,11.23
2024-04-23T10:55:35.215Z,11.38
2024-04-23T11:00:40.502Z,11.01
2024-04-23T11:05:49.470Z,10.72
2024-04-23T11:11:07.152Z,10.85
2024-04-23T11:16:19.342Z,10.88
2024-04-23T11:21:28.890Z,11.08
2024-04-23T11:26:37.234Z,11.08
2024-04-23T11:31:42.601Z,11.05
2024-04-23T11:36:53.578Z,11.24
2024-04-23T11:42:01.497Z,11.38
2024-04-23T11:47:06.790Z,11.21
2024-04-23T11:52:12.918Z,11.06
2024-04-23T11:57:21.719Z,10.95
2024-04-23T12:02:27.131Z,10.30
2024-04-23T12:07:32.249Z,9.78
2024-04-23T12:12:39.940Z,9.17
2024-04-23T12:17:45.631Z,9.21
2024-04-23T12:22:52.341Z,9.23
2024-04-23T12:28:00.021Z,9.61
2024-04-23T12:33:12.216Z,10.48
2024-04-23T12:38:17.526Z,11.04
2024-04-23T12:43:32.459Z,11.38
2024-04-23T12:48:39.264Z,11.37
2024-04-23T12:53:44.776Z,11.13
2024-04-23T12:58:56.753Z,10.56
2024-04-23T13:04:01.952Z,9.75
2024-04-23T13:09:07.074Z,9.64
2024-04-23T13:14:14.644Z,9.25
2024-04-23T13:19:24.722Z,8.92
2024-04-23T13:24:29.739Z,8.98
2024-04-23T13:29:37.327Z,9.19
2024-04-23T13:34:42.346Z,9.30
2024-04-23T13:39:47.374Z,9.20
2024-04-23T13:44:54.936Z,9.48
2024-04-23T13:49:59.983Z,9.90
2024-04-23T13:55:04.949Z,10.12
2024-04-23T14:00:14.294Z,10.81
2024-04-23T14:05:21.142Z,11.04
2024-04-23T14:10:26.122Z,11.24
2024-04-23T14:15:33.733Z,11.50
2024-04-23T14:20:38.714Z,11.84
2024-04-23T14:25:43.848Z,11.99
2024-04-23T14:30:51.377Z,12.11
2024-04-23T14:35:56.329Z,12.14
2024-04-23T14:41:01.818Z,12.15
2024-04-23T14:46:15.730Z,12.21
2024-04-23T14:51:21.673Z,12.29
2024-04-23T14:56:26.626Z,12.19
2024-04-23T15:01:34.798Z,12.27
2024-04-23T15:06:39.765Z,12.12
2024-04-23T15:11:44.772Z,11.89
2024-04-23T15:16:52.414Z,11.65
2024-04-23T15:21:57.395Z,11.58
2024-04-23T15:27:02.411Z,11.48
2024-04-23T15:32:11.676Z,11.55
2024-04-23T15:37:16.715Z,11.83
2024-04-23T15:42:23.338Z,11.73
2024-04-23T15:47:30.974Z,11.74
2024-04-23T15:52:37.144Z,11.64
2024-04-23T15:57:42.249Z,11.71
2024-04-23T16:02:49.938Z,11.61
2024-04-23T16:07:55.095Z,11.69
2024-04-23T16:13:00.054Z,11.80
2024-04-23T16:18:08.860Z,11.86
2024-04-23T16:23:13.992Z,11.85
2024-04-23T16:28:19.118Z,11.74
2024-04-23T16:33:26.853Z,11.64
2024-04-23T16:38:32.211Z,11.63
2024-04-23T16:43:37.644Z,11.55
2024-04-23T16:48:45.350Z,11.56
2024-04-23T16:53:50.365Z,11.60
2024-04-23T16:58:56.706Z,11.60
2024-04-23T17:04:04.421Z,11.42
2024-04-23T17:09:09.692Z,11.47
2024-04-23T17:14:14.750Z,11.85
2024-04-23T17:19:23.034Z,11.78
2024-04-23T17:24:28.149Z,11.90
2024-04-23T17:29:33.113Z,11.90
2024-04-23T17:34:40.790Z,11.74
2024-04-23T17:39:45.832Z,11.58
2024-04-23T17:44:50.815Z,11.40
2024-04-23T17:50:01.660Z,11.24
2024-04-23T17:55:08.408Z,11.12
2024-04-23T18:00:14.493Z,11.61
2024-04-23T18:05:23.081Z,11.34
2024-04-23T18:10:28.559Z,11.07
2024-04-23T18:15:33.669Z,10.90
2024-04-23T18:20:41.251Z,10.77
2024-04-23T18:25:46.281Z,10.68
2024-04-23T18:30:51.379Z,10.56
2024-04-23T18:35:59.094Z,10.39
2024-04-23T18:41:08.677Z,10.26
2024-04-23T18:46:17.052Z,10.12
2024-04-23T18:51:24.835Z,10.02
2024-04-23T18:56:29.816Z,9.92
2024-04-23T19:01:34.808Z,9.78
2024-04-23T19:06:42.418Z,9.71
2024-04-23T19:11:47.487Z,9.60
2024-04-23T19:16:52.629Z,9.51
2024-04-23T19:22:01.245Z,9.47
2024-04-23T19:27:06.266Z,9.41
2024-04-23T19:32:11.375Z,9.37
2024-04-23T19:37:19.035Z,9.31
2024-04-23T19:42:24.852Z,9.25
2024-04-23T19:47:29.870Z,9.16
2024-04-23T19:52:37.424Z,9.05
2024-04-23T19:57:58.704Z,8.97
2024-04-23T20:03:03.780Z,8.96
2024-04-23T20:08:11.418Z,8.91
2024-04-23T20:13:16.406Z,8.85
2024-04-23T20:18:21.657Z,8.81
2024-04-23T20:23:29.340Z,8.77
2024-04-23T20:28:34.291Z,8.69
2024-04-23T20:33:39.386Z,8.58
2024-04-23T20:38:47.007Z,8.54
2024-04-23T20:43:51.983Z,8.45
2024-04-23T20:48:56.978Z,8.35
2024-04-23T20:54:04.565Z,8.33
2024-04-23T20:59:09.517Z,8.33
2024-04-23T21:04:15.989Z,8.29
2024-04-23T21:09:23.626Z,8.23
2024-04-23T21:14:28.584Z,8.14
2024-04-23T21:19:33.536Z,8.05
2024-04-23T21:24:41.082Z,7.95
2024-04-23T21:29:46.035Z,7.85
2024-04-23T21:34:54.884Z,7.78
2024-04-23T21:40:04.691Z,7.68
2024-04-23T21:45:10.664Z,7.59
2024-04-23T21:50:15.737Z,7.49
2024-04-23T21:55:23.294Z,7.40
2024-04-23T22:00:28.887Z,7.31
2024-04-23T22:05:33.863Z,7.19
2024-04-23T22:10:41.596Z,7.12
2024-04-23T22:15:46.643Z,7.08
2024-04-23T22:20:51.922Z,7.03
2024-04-23T22:26:01.476Z,6.97
2024-04-23T22:31:06.971Z,6.94
2024-04-23T22:36:12.542Z,6.91
2024-04-23T22:41:20.172Z,6.85
2024-04-23T22:46:26.940Z,6.80
2024-04-23T22:51:43.085Z,6.75
2024-04-23T22:56:50.687Z,6.68
2024-04-23T23:01:56.610Z,6.63
2024-04-23T23:07:01.611Z,6.63
2024-04-23T23:12:09.561Z,6.59
2024-04-23T23:17:14.623Z,6.55
2024-04-23T23:22:19.578Z,6.47
2024-04-23T23:27:27.153Z,6.40
2024-04-23T23:32:32.338Z,6.38
2024-04-23T23:37:37.400Z,6.36
2024-04-23T23:42:44.954Z,6.35
2024-04-23T23:47:50.168Z,6.37
2024-04-23T23:52:55.354Z,6.39
2024-04-23T23:58:02.956Z,6.37
